createdAt,value
2023-04-08T00:00:37.592Z,4.49
2023-04-08T00:03:04.253Z,4.46
2023-04-08T00:05:30.869Z,4.51
2023-04-08T00:07:57.198Z,4.57
2023-04-08T00:10:24.855Z,4.60
2023-04-08T00:12:51.385Z,4.64
2023-04-08T00:15:17.870Z,4.54
2023-04-08T00:17:45.274Z,4.56
2023-04-08T00:20:12.121Z,4.52
2023-04-08T00:22:38.442Z,4.59
2023-04-08T00:25:09.384Z,4.57
2023-04-08T00:27:35.662Z,4.60
2023-04-08T00:30:03.231Z,4.58
2023-04-08T00:32:29.787Z,4.60
2023-04-08T00:34:56.520Z,4.62
2023-04-08T00:37:23.127Z,4.56
2023-04-08T00:39:49.802Z,4.55
2023-04-08T00:42:16.630Z,4.45
2023-04-08T00:44:42.931Z,4.46
2023-04-08T00:47:12.948Z,4.43
2023-04-08T00:49:39.593Z,4.53
2023-04-08T00:52:05.993Z,4.46
2023-04-08T00:54:32.411Z,4.32
2023-04-08T00:57:01.808Z,4.34
2023-04-08T00:59:30.285Z,4.30
2023-04-08T01:02:06.686Z,4.33
2023-04-08T01:04:46.030Z,4.36
2023-04-08T01:07:20.255Z,4.36
2023-04-08T01:09:50.154Z,4.45
2023-04-08T01:12:22.407Z,4.45
2023-04-08T01:14:52.196Z,4.45
2023-04-08T01:17:19.804Z,4.44
2023-04-08T01:19:47.705Z,4.33
2023-04-08T01:22:51.165Z,4.43
2023-04-08T01:25:23.682Z,4.44
2023-04-08T01:27:50.817Z,4.34
2023-04-08T01:30:21.922Z,4.32
2023-04-08T01:32:51.964Z,4.33
2023-04-08T01:35:18.466Z,4.40
2023-04-08T01:37:47.461Z,4.48
2023-04-08T01:40:14.675Z,4.37
2023-04-08T01:42:42.129Z,4.42
2023-04-08T01:45:09.580Z,4.37
2023-04-08T01:47:38.221Z,4.29
2023-04-08T01:50:06.196Z,4.34
2023-04-08T01:52:35.667Z,4.38
2023-04-08T01:55:02.025Z,4.36
2023-04-08T01:57:32.572Z,4.26
2023-04-08T02:00:04.001Z,4.32
2023-04-08T02:02:33.185Z,4.30
2023-04-08T02:04:59.667Z,4.41
2023-04-08T02:07:25.964Z,4.53
2023-04-08T02:09:52.270Z,4.48
2023-04-08T02:12:19.131Z,4.55
2023-04-08T02:14:45.762Z,4.53
2023-04-08T02:17:17.275Z,4.59
2023-04-08T02:20:10.879Z,4.44
2023-04-08T02:22:40.052Z,4.41
2023-04-08T02:25:11.114Z,4.33
2023-04-08T02:27:40.156Z,4.40
2023-04-08T02:30:08.673Z,4.38
2023-04-08T02:32:36.304Z,4.28
2023-04-08T02:35:04.146Z,4.29
2023-04-08T02:37:31.724Z,4.12
2023-04-08T02:39:59.076Z,4.16
2023-04-08T02:42:25.674Z,4.16
2023-04-08T02:44:52.028Z,4.15
2023-04-08T02:47:18.317Z,4.10
2023-04-08T02:49:44.684Z,4.03
2023-04-08T02:52:10.969Z,4.07
2023-04-08T02:54:37.281Z,4.05
2023-04-08T02:57:03.693Z,3.99
2023-04-08T02:59:29.937Z,4.01
2023-04-08T03:01:56.367Z,4.06
2023-04-08T03:04:22.760Z,4.06
2023-04-08T03:06:49.055Z,4.15
2023-04-08T03:09:15.483Z,4.19
2023-04-08T03:11:41.766Z,4.15
2023-04-08T03:14:08.023Z,4.13
2023-04-08T03:16:34.332Z,3.95
2023-04-08T03:19:00.727Z,3.96
2023-04-08T03:21:27.063Z,3.94
2023-04-08T03:23:53.381Z,3.86
2023-04-08T03:26:19.735Z,3.87
2023-04-08T03:28:46.026Z,3.93
2023-04-08T03:31:12.619Z,3.92
2023-04-08T03:33:39.030Z,3.81
2023-04-08T03:36:06.650Z,3.88
2023-04-08T03:38:32.986Z,3.91
2023-04-08T03:40:59.261Z,3.93
2023-04-08T03:43:26.025Z,3.91
2023-04-08T03:45:52.384Z,3.90
2023-04-08T03:48:18.807Z,3.91
2023-04-08T03:50:45.076Z,3.87
2023-04-08T03:53:12.124Z,3.87
2023-04-08T03:55:39.043Z,3.92
2023-04-08T03:58:05.865Z,3.91
2023-04-08T04:00:32.148Z,3.86
2023-04-08T04:02:58.529Z,3.92
2023-04-08T04:05:24.995Z,3.86
2023-04-08T04:07:51.412Z,3.86
2023-04-08T04:10:17.747Z,3.89
2023-04-08T04:12:44.859Z,3.92
2023-04-08T04:15:11.682Z,3.99
2023-04-08T04:17:37.951Z,3.93
2023-04-08T04:20:07.853Z,4.04
2023-04-08T04:22:34.179Z,3.98
2023-04-08T04:25:00.544Z,4.05
2023-04-08T04:27:26.840Z,3.98
2023-04-08T04:29:53.109Z,3.98
2023-04-08T04:32:20.203Z,4.02
2023-04-08T04:34:46.740Z,3.98
2023-04-08T04:37:13.612Z,3.98
2023-04-08T04:39:39.951Z,3.97
2023-04-08T04:42:06.525Z,3.93
2023-04-08T04:44:33.046Z,3.94
2023-04-08T04:46:59.361Z,3.94
2023-04-08T04:49:25.863Z,3.91
2023-04-08T04:51:52.205Z,4.02
2023-04-08T04:54:18.499Z,3.99
2023-04-08T04:56:44.767Z,3.97
2023-04-08T04:59:11.083Z,4.04
2023-04-08T05:01:37.465Z,4.07
2023-04-08T05:04:03.897Z,4.13
2023-04-08T05:06:30.833Z,3.99
2023-04-08T05:08:57.122Z,4.00
2023-04-08T05:11:23.414Z,4.00
2023-04-08T05:13:49.797Z,4.02
2023-04-08T05:16:16.506Z,3.91
2023-04-08T05:18:42.847Z,3.97
2023-04-08T05:21:09.115Z,3.96
2023-04-08T05:23:35.606Z,3.88
2023-04-08T05:26:01.928Z,3.96
2023-04-08T05:28:28.247Z,3.94
2023-04-08T05:30:54.621Z,3.94
2023-04-08T05:33:20.999Z,3.92
2023-04-08T05:35:47.456Z,3.96
2023-04-08T05:38:13.828Z,4.01
2023-04-08T05:40:40.448Z,4.08
2023-04-08T05:43:06.754Z,4.04
2023-04-08T05:45:33.116Z,4.12
2023-04-08T05:47:59.476Z,4.08
2023-04-08T05:50:25.888Z,4.03
2023-04-08T05:52:52.157Z,3.92
2023-04-08T05:55:18.504Z,3.93
2023-04-08T05:57:44.805Z,3.91
2023-04-08T06:00:11.371Z,3.94
2023-04-08T06:02:38.199Z,3.89
2023-04-08T06:05:05.720Z,3.87
2023-04-08T06:07:33.340Z,3.84
2023-04-08T06:09:59.637Z,3.83
2023-04-08T06:12:26.006Z,3.83
2023-04-08T06:14:56.369Z,3.83
2023-04-08T06:17:23.141Z,3.80
2023-04-08T06:19:49.424Z,3.77
2023-04-08T06:22:15.921Z,3.80
2023-04-08T06:24:42.304Z,3.89
2023-04-08T06:27:08.940Z,4.01
2023-04-08T06:29:35.364Z,4.01
2023-04-08T06:32:01.688Z,4.04
2023-04-08T06:34:28.188Z,4.12
2023-04-08T06:36:54.485Z,4.14
2023-04-08T06:39:21.484Z,3.89
2023-04-08T06:41:47.750Z,3.94
2023-04-08T06:44:14.058Z,3.98
2023-04-08T06:46:40.392Z,4.08
2023-04-08T06:49:07.012Z,4.15
2023-04-08T06:51:33.362Z,4.07
2023-04-08T06:53:59.618Z,4.13
2023-04-08T06:56:26.176Z,4.22
2023-04-08T06:58:53.102Z,4.24
2023-04-08T07:01:19.456Z,4.23
2023-04-08T07:03:45.887Z,4.35
2023-04-08T07:06:12.254Z,4.42
2023-04-08T07:08:38.689Z,4.36
2023-04-08T07:11:05.599Z,4.28
2023-04-08T07:13:31.946Z,4.18
2023-04-08T07:15:58.235Z,4.17
2023-04-08T07:18:26.126Z,4.21
2023-04-08T07:20:53.859Z,4.30
2023-04-08T07:23:20.547Z,4.23
2023-04-08T07:25:47.806Z,4.22
2023-04-08T07:28:14.302Z,4.19
2023-04-08T07:30:40.969Z,4.21
2023-04-08T07:33:07.369Z,4.18
2023-04-08T07:35:34.339Z,4.04
2023-04-08T07:38:00.858Z,4.00
2023-04-08T07:40:27.112Z,3.97
2023-04-08T07:42:53.459Z,4.13
2023-04-08T07:45:20.235Z,4.10
2023-04-08T07:47:47.184Z,4.13
2023-04-08T07:50:13.529Z,4.18
2023-04-08T07:52:39.922Z,4.17
2023-04-08T07:55:06.618Z,4.15
2023-04-08T07:57:33.080Z,4.06
2023-04-08T07:59:59.653Z,4.15
2023-04-08T08:02:26.266Z,4.18
2023-04-08T08:04:52.775Z,4.27
2023-04-08T08:07:19.246Z,4.27
2023-04-08T08:09:45.580Z,4.20
2023-04-08T08:12:11.904Z,4.27
2023-04-08T08:14:38.567Z,4.37
2023-04-08T08:17:04.903Z,4.45
2023-04-08T08:19:31.193Z,4.32
2023-04-08T08:21:57.600Z,4.26
2023-04-08T08:24:23.899Z,4.28
2023-04-08T08:26:50.545Z,4.36
2023-04-08T08:29:16.816Z,4.44
2023-04-08T08:31:43.134Z,4.37
2023-04-08T08:34:09.655Z,4.38
2023-04-08T08:36:36.182Z,4.47
2023-04-08T08:39:02.786Z,4.52
2023-04-08T08:41:35.082Z,4.67
2023-04-08T08:44:03.112Z,4.81
2023-04-08T08:46:29.756Z,4.98
2023-04-08T08:48:56.936Z,5.07
2023-04-08T08:51:24.108Z,5.17
2023-04-08T08:53:50.916Z,4.88
2023-04-08T08:56:18.955Z,5.01
2023-04-08T08:58:47.214Z,5.01
2023-04-08T09:01:33.618Z,4.73
2023-04-08T09:04:11.262Z,4.61
2023-04-08T09:06:38.639Z,4.78
2023-04-08T09:09:10.185Z,4.91
2023-04-08T09:11:38.854Z,5.00
2023-04-08T09:14:06.951Z,4.84
2023-04-08T09:16:33.673Z,4.69
2023-04-08T09:19:10.991Z,5.03
2023-04-08T09:21:38.644Z,5.09
2023-04-08T09:24:05.206Z,4.66
2023-04-08T09:26:31.573Z,4.97
2023-04-08T09:29:18.252Z,5.11
2023-04-08T09:31:57.811Z,4.85
2023-04-08T09:34:25.559Z,4.90
2023-04-08T09:36:52.751Z,4.80
2023-04-08T09:39:19.545Z,4.88
2023-04-08T09:41:49.343Z,4.80
2023-04-08T09:44:19.273Z,4.77
2023-04-08T09:46:51.702Z,4.73
2023-04-08T09:49:27.154Z,4.75
2023-04-08T09:52:15.564Z,4.75
2023-04-08T09:54:52.304Z,4.75
2023-04-08T09:57:43.716Z,4.73
2023-04-08T10:00:15.299Z,4.87
2023-04-08T10:03:06.303Z,4.89
2023-04-08T10:05:36.516Z,4.90
2023-04-08T10:08:03.426Z,4.95
2023-04-08T10:10:30.150Z,4.75
2023-04-08T10:12:56.810Z,4.71
2023-04-08T10:15:31.366Z,4.73
2023-04-08T10:18:06.832Z,4.70
2023-04-08T10:20:36.386Z,4.74
2023-04-08T10:23:07.513Z,4.68
2023-04-08T10:25:41.196Z,4.79
2023-04-08T10:28:19.288Z,4.56
2023-04-08T10:30:50.221Z,4.63
2023-04-08T10:33:25.419Z,4.83
2023-04-08T10:36:00.331Z,4.93
2023-04-08T10:38:27.203Z,5.05
2023-04-08T10:40:54.329Z,5.08
2023-04-08T10:43:20.709Z,5.13
2023-04-08T10:45:50.978Z,5.05
2023-04-08T10:48:22.940Z,5.05
2023-04-08T10:50:59.776Z,5.00
2023-04-08T10:53:31.253Z,5.10
2023-04-08T10:56:08.707Z,5.08
2023-04-08T10:58:36.745Z,5.09
2023-04-08T11:01:05.821Z,5.15
2023-04-08T11:03:34.834Z,5.23
2023-04-08T11:06:03.586Z,5.29
2023-04-08T11:08:32.158Z,5.37
2023-04-08T11:11:01.559Z,5.32
2023-04-08T11:13:28.745Z,5.17
2023-04-08T11:15:56.372Z,5.11
2023-04-08T11:18:23.476Z,5.29
2023-04-08T11:20:53.697Z,5.33
2023-04-08T11:23:20.431Z,5.38
2023-04-08T11:25:47.678Z,5.49
2023-04-08T11:28:14.506Z,5.55
2023-04-08T11:30:41.537Z,5.46
2023-04-08T11:33:08.086Z,5.55
2023-04-08T11:35:34.531Z,5.44
2023-04-08T11:38:05.202Z,5.45
2023-04-08T11:40:31.557Z,5.60
2023-04-08T11:42:58.024Z,5.36
2023-04-08T11:45:26.009Z,5.49
2023-04-08T11:47:53.088Z,5.58
2023-04-08T11:50:24.697Z,5.52
2023-04-08T11:52:52.536Z,5.54
2023-04-08T11:55:24.782Z,5.49
2023-04-08T11:57:52.596Z,5.51
2023-04-08T12:00:19.603Z,5.64
2023-04-08T12:02:49.892Z,5.84
2023-04-08T12:05:16.623Z,5.66
2023-04-08T12:07:43.708Z,5.72
2023-04-08T12:10:11.503Z,5.66
2023-04-08T12:12:38.388Z,5.76
2023-04-08T12:15:05.560Z,5.61
2023-04-08T12:17:31.903Z,5.57
2023-04-08T12:19:58.373Z,5.63
2023-04-08T12:22:24.880Z,5.67
2023-04-08T12:24:51.174Z,5.69
2023-04-08T12:27:17.564Z,5.70
2023-04-08T12:29:43.921Z,5.68
2023-04-08T12:32:10.318Z,5.55
2023-04-08T12:34:36.672Z,5.57
2023-04-08T12:37:03.316Z,5.72
2023-04-08T12:39:29.581Z,5.78
2023-04-08T12:41:56.756Z,5.59
2023-04-08T12:44:23.028Z,5.54
2023-04-08T12:46:49.428Z,5.66
2023-04-08T12:49:16.099Z,5.77
2023-04-08T12:51:42.630Z,5.93
2023-04-08T12:54:09.027Z,5.89
2023-04-08T12:56:35.487Z,5.70
2023-04-08T12:59:01.918Z,5.61
2023-04-08T13:01:28.388Z,5.62
2023-04-08T13:03:55.504Z,5.86
2023-04-08T13:06:22.183Z,5.86
2023-04-08T13:08:48.850Z,5.90
2023-04-08T13:11:15.444Z,5.85
2023-04-08T13:13:41.879Z,5.91
2023-04-08T13:16:09.323Z,5.76
2023-04-08T13:18:36.556Z,5.75
2023-04-08T13:21:02.868Z,5.75
2023-04-08T13:23:29.332Z,5.77
2023-04-08T13:25:55.714Z,5.71
2023-04-08T13:28:22.142Z,5.80
2023-04-08T13:30:48.421Z,5.76
2023-04-08T13:33:14.856Z,5.84
2023-04-08T13:35:41.362Z,5.79
2023-04-08T13:38:08.418Z,5.74
2023-04-08T13:40:34.950Z,5.67
2023-04-08T13:43:02.099Z,5.77
2023-04-08T13:45:28.442Z,5.82
2023-04-08T13:47:54.928Z,5.76
2023-04-08T13:50:21.460Z,5.67
2023-04-08T13:52:47.849Z,5.67
2023-04-08T13:55:14.159Z,5.68
2023-04-08T13:57:40.590Z,5.84
2023-04-08T14:00:07.853Z,5.74
2023-04-08T14:02:34.437Z,5.63
2023-04-08T14:05:00.784Z,5.67
2023-04-08T14:07:27.108Z,5.66
2023-04-08T14:09:53.493Z,5.71
2023-04-08T14:12:19.875Z,5.83
2023-04-08T14:14:46.221Z,5.65
2023-04-08T14:17:12.682Z,5.74
2023-04-08T14:19:39.104Z,5.86
2023-04-08T14:22:05.445Z,5.94
2023-04-08T14:24:31.725Z,5.98
2023-04-08T14:26:58.153Z,5.84
2023-04-08T14:29:26.528Z,5.86
2023-04-08T14:31:53.954Z,5.71
2023-04-08T14:34:20.296Z,5.80
2023-04-08T14:36:47.200Z,5.78
2023-04-08T14:39:13.570Z,5.94
2023-04-08T14:41:40.568Z,6.18
2023-04-08T14:44:06.927Z,6.15
2023-04-08T14:46:33.457Z,6.08
2023-04-08T14:49:00.816Z,5.97
2023-04-08T14:51:27.084Z,6.07
2023-04-08T14:53:53.347Z,6.13
2023-04-08T14:56:19.701Z,6.04
2023-04-08T14:58:45.987Z,6.11
2023-04-08T15:01:12.315Z,6.11
2023-04-08T15:03:38.755Z,6.10
2023-04-08T15:06:06.100Z,5.76
2023-04-08T15:08:34.774Z,5.77
2023-04-08T15:11:01.051Z,5.79
2023-04-08T15:13:27.367Z,5.86
2023-04-08T15:15:53.907Z,6.00
2023-04-08T15:18:20.315Z,6.03
2023-04-08T15:20:46.974Z,6.00
2023-04-08T15:23:13.262Z,5.79
2023-04-08T15:25:39.659Z,5.80
2023-04-08T15:28:05.996Z,5.77
2023-04-08T15:30:35.380Z,5.47
2023-04-08T15:33:03.578Z,5.56
2023-04-08T15:35:30.523Z,5.59
2023-04-08T15:37:56.990Z,5.77
2023-04-08T15:40:23.523Z,5.79
2023-04-08T15:42:49.825Z,5.84
2023-04-08T15:45:16.144Z,5.87
2023-04-08T15:47:42.547Z,6.01
2023-04-08T15:50:09.929Z,6.03
2023-04-08T15:52:36.250Z,6.01
2023-04-08T15:55:02.724Z,6.07
2023-04-08T15:57:30.952Z,6.17
2023-04-08T15:59:57.255Z,6.13
2023-04-08T16:02:23.761Z,6.19
2023-04-08T16:04:50.569Z,6.08
2023-04-08T16:07:17.147Z,6.10
2023-04-08T16:09:43.552Z,6.11
2023-04-08T16:12:10.813Z,6.10
2023-04-08T16:14:37.104Z,6.14
2023-04-08T16:17:03.595Z,6.09
2023-04-08T16:19:30.940Z,6.08
2023-04-08T16:21:57.249Z,6.10
2023-04-08T16:24:23.976Z,5.76
2023-04-08T16:26:50.444Z,5.93
2023-04-08T16:29:16.750Z,6.14
2023-04-08T16:31:43.154Z,5.98
2023-04-08T16:34:09.524Z,5.75
2023-04-08T16:36:35.835Z,5.64
2023-04-08T16:39:02.208Z,5.62
2023-04-08T16:41:28.599Z,5.63
2023-04-08T16:43:54.972Z,5.75
2023-04-08T16:46:21.922Z,5.87
2023-04-08T16:48:48.476Z,5.86
2023-04-08T16:51:14.869Z,5.87
2023-04-08T16:53:41.277Z,5.89
2023-04-08T16:56:16.895Z,5.91
2023-04-08T16:58:43.669Z,5.99
2023-04-08T17:01:10.877Z,5.99
2023-04-08T17:03:37.673Z,6.07
2023-04-08T17:06:08.838Z,6.09
2023-04-08T17:08:35.418Z,6.13
2023-04-08T17:11:14.942Z,6.10
2023-04-08T17:13:43.735Z,5.99
2023-04-08T17:16:15.741Z,5.91
2023-04-08T17:18:42.578Z,5.92
2023-04-08T17:21:09.568Z,5.83
2023-04-08T17:23:36.138Z,5.83
2023-04-08T17:26:09.910Z,5.85
2023-04-08T17:28:36.459Z,5.96
2023-04-08T17:31:03.008Z,5.97
2023-04-08T17:33:29.395Z,5.94
2023-04-08T17:35:55.750Z,5.97
2023-04-08T17:38:22.281Z,5.90
2023-04-08T17:40:48.584Z,5.87
2023-04-08T17:43:14.859Z,5.81
2023-04-08T17:45:41.423Z,5.76
2023-04-08T17:48:09.658Z,5.79
2023-04-08T17:50:36.159Z,5.82
2023-04-08T17:53:02.720Z,5.81
2023-04-08T17:55:29.141Z,5.88
2023-04-08T17:57:55.833Z,5.81
2023-04-08T18:00:22.321Z,5.77
2023-04-08T18:02:50.301Z,5.77
2023-04-08T18:05:16.742Z,5.78
2023-04-08T18:07:43.224Z,5.77
2023-04-08T18:10:09.711Z,5.79
2023-04-08T18:12:36.045Z,5.81
2023-04-08T18:15:02.772Z,5.83
2023-04-08T18:17:29.184Z,5.81
2023-04-08T18:19:55.549Z,5.79
2023-04-08T18:22:22.489Z,5.76
2023-04-08T18:24:49.270Z,5.62
2023-04-08T18:27:16.532Z,5.68
2023-04-08T18:29:42.880Z,5.67
2023-04-08T18:32:09.240Z,5.62
2023-04-08T18:34:35.805Z,5.59
2023-04-08T18:37:02.102Z,5.64
2023-04-08T18:39:28.461Z,5.68
2023-04-08T18:41:54.764Z,5.72
2023-04-08T18:44:21.148Z,5.71
2023-04-08T18:46:47.534Z,5.60
2023-04-08T18:49:14.002Z,5.65
2023-04-08T18:51:42.205Z,5.62
2023-04-08T18:54:13.005Z,5.61
2023-04-08T18:56:39.347Z,5.71
2023-04-08T18:59:05.643Z,5.67
2023-04-08T19:01:33.006Z,5.69
2023-04-08T19:03:59.446Z,5.67
2023-04-08T19:06:26.054Z,5.68
2023-04-08T19:08:52.316Z,5.57
2023-04-08T19:11:18.633Z,5.61
2023-04-08T19:13:48.130Z,5.55
2023-04-08T19:16:14.488Z,5.61
2023-04-08T19:18:40.806Z,5.62
2023-04-08T19:21:07.069Z,5.59
2023-04-08T19:23:33.364Z,5.60
2023-04-08T19:26:03.732Z,5.54
2023-04-08T19:28:30.207Z,5.53
2023-04-08T19:30:56.753Z,5.55
2023-04-08T19:33:23.538Z,5.55
2023-04-08T19:35:49.807Z,5.47
2023-04-08T19:38:16.171Z,5.48
2023-04-08T19:40:42.554Z,5.61
2023-04-08T19:43:08.895Z,5.49
2023-04-08T19:45:35.553Z,5.55
2023-04-08T19:48:01.941Z,5.58
2023-04-08T19:50:28.288Z,5.65
2023-04-08T19:52:54.588Z,5.72
2023-04-08T19:55:21.653Z,5.72
2023-04-08T19:57:48.511Z,5.73
2023-04-08T20:00:15.193Z,5.70
2023-04-08T20:02:41.629Z,5.57
2023-04-08T20:05:14.483Z,5.51
2023-04-08T20:07:40.833Z,5.46
2023-04-08T20:10:08.120Z,5.54
2023-04-08T20:12:34.542Z,5.51
2023-04-08T20:15:01.107Z,5.44
2023-04-08T20:17:27.877Z,5.46
2023-04-08T20:19:54.385Z,5.53
2023-04-08T20:22:20.846Z,5.55
2023-04-08T20:24:50.474Z,5.56
2023-04-08T20:27:18.528Z,5.52
2023-04-08T20:29:45.023Z,5.45
2023-04-08T20:32:11.469Z,5.36
2023-04-08T20:34:37.811Z,5.42
2023-04-08T20:37:04.380Z,5.43
2023-04-08T20:39:31.798Z,5.42
2023-04-08T20:41:58.984Z,5.45
2023-04-08T20:44:28.751Z,5.46
2023-04-08T20:46:55.109Z,5.54
2023-04-08T20:49:21.532Z,5.40
2023-04-08T20:51:47.959Z,5.48
2023-04-08T20:54:14.509Z,5.42
2023-04-08T20:56:40.835Z,5.35
2023-04-08T20:59:07.255Z,5.32
2023-04-08T21:01:33.921Z,5.38
2023-04-08T21:04:00.645Z,5.42
2023-04-08T21:06:27.623Z,5.39
2023-04-08T21:08:54.136Z,5.47
2023-04-08T21:11:21.012Z,5.55
2023-04-08T21:13:49.092Z,5.36
2023-04-08T21:16:16.335Z,5.31
2023-04-08T21:18:42.772Z,5.34
2023-04-08T21:21:11.216Z,5.31
2023-04-08T21:23:37.497Z,5.31
2023-04-08T21:26:03.865Z,5.40
2023-04-08T21:28:30.238Z,5.38
2023-04-08T21:30:56.523Z,5.43
2023-04-08T21:33:22.979Z,5.51
2023-04-08T21:35:49.367Z,5.36
2023-04-08T21:38:16.051Z,5.39
2023-04-08T21:40:42.516Z,5.49
2023-04-08T21:43:08.802Z,5.49
2023-04-08T21:45:35.322Z,5.64
2023-04-08T21:48:01.665Z,5.60
2023-04-08T21:50:28.024Z,5.59
2023-04-08T21:52:54.319Z,5.61
2023-04-08T21:55:20.698Z,5.62
2023-04-08T21:57:48.280Z,5.62
2023-04-08T22:00:15.074Z,5.58
2023-04-08T22:02:41.547Z,5.60
2023-04-08T22:05:08.929Z,5.58
2023-04-08T22:07:35.224Z,5.60
2023-04-08T22:10:02.144Z,5.58
2023-04-08T22:12:30.363Z,5.59
2023-04-08T22:14:57.016Z,5.53
2023-04-08T22:17:23.451Z,5.57
2023-04-08T22:19:49.769Z,5.58
2023-04-08T22:22:16.062Z,5.65
2023-04-08T22:24:42.384Z,5.69
2023-04-08T22:27:08.691Z,5.65
2023-04-08T22:29:35.118Z,5.64
2023-04-08T22:32:01.466Z,5.53
2023-04-08T22:34:27.772Z,5.66
2023-04-08T22:36:54.273Z,5.71
2023-04-08T22:39:20.537Z,5.68
2023-04-08T22:41:47.002Z,5.68
2023-04-08T22:44:13.291Z,5.70
2023-04-08T22:46:39.695Z,5.70
2023-04-08T22:49:06.156Z,5.68
2023-04-08T22:51:32.553Z,5.65
2023-04-08T22:53:58.846Z,5.70
2023-04-08T22:56:27.951Z,5.68
2023-04-08T22:58:54.711Z,5.61
2023-04-08T23:01:21.911Z,5.58
2023-04-08T23:03:49.273Z,5.59
2023-04-08T23:06:16.587Z,5.56
2023-04-08T23:08:42.959Z,5.54
2023-04-08T23:11:09.410Z,5.67
2023-04-08T23:13:35.836Z,5.71
2023-04-08T23:16:02.338Z,5.66
2023-04-08T23:18:28.697Z,5.60
2023-04-08T23:20:56.572Z,5.59
2023-04-08T23:23:24.701Z,5.68
2023-04-08T23:25:51.623Z,5.67
2023-04-08T23:28:18.057Z,5.61
2023-04-08T23:30:44.409Z,5.56
2023-04-08T23:33:10.932Z,5.48
2023-04-08T23:35:39.544Z,5.52
2023-04-08T23:38:05.975Z,5.47
2023-04-08T23:40:32.420Z,5.36
2023-04-08T23:42:58.748Z,5.49
2023-04-08T23:45:25.183Z,5.57
2023-04-08T23:47:51.700Z,5.59
2023-04-08T23:50:20.065Z,5.57
2023-04-08T23:52:46.410Z,5.49
2023-04-08T23:55:12.820Z,5.44
2023-04-08T23:57:42.511Z,5.41
